Saturday, February 24, 2018, 4:56 AM EST
Back to Local

KWRI, Mcguire Air Force Base

Location: Trenton, NJ, United States Lat: 40.017
Local Time: 4:56 AM EST ( 9:56 GMT) Lon: -74.6
Time Zone: US/Eastern Elev: 134 ft

Show me the last for .
Show Decoded

2018-02-24 03:56 METAR KWRI 240856Z AUTO 27009KT 5SM BR OVC003 07/06 A3015 RMK AO2 CIG 002 RWY18
                 SLP210 T00670063 57010 =
2018-02-24 03:46 METAR KWRI 240846Z AUTO 26009KT 6SM BR OVC003 07/06 A3014 RMK AO2 CIG 002 RWY18
                 SLP207 =
2018-02-24 02:56 METAR KWRI 240756Z AUTO 29007KT 10SM OVC004 07/06 A3016 RMK AO2 CIG 003 RWY18
                 SLP214 T00690063 =
2018-02-24 01:56 METAR KWRI 240656Z AUTO 28009KT 10SM OVC004 07/06 A3017 RMK AO2 CIG 003 RWY18
                 SLP217 T00690063 =
2018-02-24 00:56 METAR KWRI 240556Z 26010KT 10SM OVC004 07/06 A3018 RMK AO2A CIG 003 RWY18 SLP220
                 T00670064 10067 20051 56016 =
2018-02-24 00:41 METAR KWRI 240541Z 25012KT 10SM OVC004 07/07 A3017 RMK AO2A TWR VIS 1/4 CIG 003
                 RWY06 CIG 003 RWY18 SLP217 =
2018-02-23 23:56 METAR KWRI 240456Z 25008KT 3SM BR OVC003 06/06 A3018 RMK AO2A TWR VIS 1/4 CIG
                 002 RWY06 CIG 002 RWY18 SLP221 T00640063 400640025 =
2018-02-23 23:46 METAR KWRI 240446Z 24008KT 2SM BR OVC003 06/06 A3018 RMK AO2A TWR VIS 1/4 CIG
                 002 RWY06 CIG 002 RWY18 SLP221 =
2018-02-23 23:36 METAR KWRI 240436Z 23007KT 1 5/8SM BR OVC002 06/06 A3018 RMK AO2A TWR VIS 1/4
                 SLP221 =
2018-02-23 23:26 METAR KWRI 240426Z 22006KT 1 1/4SM BR OVC002 06/06 A3018 RMK AO2A TWR VIS 1/4
                 SLP221 =
2018-02-23 22:56 METAR KWRI 240356Z 27005KT 1 3/8SM BR OVC002 06/06 A3021 RMK AO2A TWR VIS 1/4
                 SLP231 T00600059 =
2018-02-23 22:16 METAR KWRI 240316Z 24005KT 1 3/8SM BR OVC002 06/06 A3022 RMK AO2A TWR VIS 1/4
                 SLP234 =
2018-02-23 22:11 METAR KWRI 240311Z 26005KT 1 3/8SM BR OVC003 06/06 A3022 RMK AO2A TWR VIS 1/4
                 VIS 1 3/8V1 7/8 CIG 002 RWY06 CIG 002 RWY18 SLP234 =
2018-02-23 22:01 METAR KWRI 240301Z 24004KT 1 7/8SM BR OVC003 06/05 A3022 RMK AO2A TWR VIS 1/4
                 VIS 1 1/8 RWY06 VIS 1 1/4 RWY06/24 CIG 002 RWY06 CIG 001 RWY18 SLP234 =
2018-02-23 21:58 METAR KWRI 240258Z 24005KT 2SM BR OVC003 06/05 A3022 RMK TWR VIS 1/4 VIS 1 1/8
                 RWY06 VIS 1 1/4 RWY06/24 CIG 002 RWY06 CIG 001 RWY18 SLP234 =
2018-02-23 21:56 METAR KWRI 240256Z 25005KT 2SM BR OVC003 06/05 A3022 RMK AO2A TWR VIS 1/2 VIS 1
                 1/4 RWY06 VIS 1 3/8 RWY06/24 CIG 002 RWY06 CIG 001 RWY18 SLP234 T00560053 57021
                 =
2018-02-23 21:36 METAR KWRI 240236Z 25004KT 2 1/2SM BR OVC003 06/05 A3023 RMK AO2A TWR VIS 1/2
                 VIS 1 3/4 RWY06 VIS 1 7/8 RWY06/24 CIG 002 RWY06 CIG 001 RWY18 SLP237 =
2018-02-23 21:21 METAR KWRI 240221Z 24004KT 2 3/4SM BR OVC004 06/05 A3024 RMK AO2A TWR VIS 1/2
                 VIS 2 3/4V5 CIG 002 RWY06 CIG 001 RWY18 SLP241 =
2018-02-23 21:16 METAR KWRI 240216Z 24004KT 4SM BR OVC004 06/05 A3024 RMK AO2A TWR VIS 1/2 VIS 2
                 3/4 RWY06 VIS 2 1/2 RWY06/24 CIG 002 RWY06 CIG 001 RWY18 SLP241 =
2018-02-23 21:05 METAR KWRI 240205Z 25004KT 8SM BKN003 OVC007 06/05 A3024 RMK TWR VIS 1/2 CIG 002
                 RWY18 SLP241 =
2018-02-23 20:56 METAR KWRI 240156Z AUTO 28003KT 10SM OVC004 05/05 A3025 RMK AO2 CIG 004V006 CIG
                 002 RWY18 SLP244 T00540051 =
2018-02-23 20:51 METAR KWRI 240151Z AUTO 26004KT 10SM OVC004 05/05 A3025 RMK AO2 CIG 004V006 CIG
                 002 RWY18 SLP244 =
2018-02-23 20:41 METAR KWRI 240141Z AUTO 00000KT 6SM BR OVC006 05/05 A3025 RMK AO2 CIG 004V006
                 CIG 004 RWY06 CIG 002 RWY18 SLP244 =
2018-02-23 20:11 METAR KWRI 240111Z 26003KT 10SM OVC004 05/05 A3027 RMK AO2A TWR VIS 1/2 CIG 002
                 RWY06 CIG 001 RWY18 SLP251 =
2018-02-23 19:56 METAR KWRI 240056Z 00000KT 4SM BR OVC003 05/05 A3027 RMK AO2A TWR VIS 1/2 VIS 2
                 3/4 RWY06 CIG 002 RWY06 CIG 001 RWY18 SLP251 T00510048 =
2018-02-23 19:26 METAR KWRI 240026Z 00000KT 10SM BKN003 OVC015 05/05 A3026 RMK AO2A TWR VIS 5/8
                 CIG 003V009 BKN V SCT CIG 002 RWY18 SLP248 =
2018-02-23 19:21 METAR KWRI 240021Z COR 00000KT 10SM SCT003 BKN007 OVC015 05/05 A3027 RMK AO2A
                 TWR VIS 5/8 CIG 007V009 CIG 003 RWY06 CIG 002 RWY18 SLP251 COR 0022 =
2018-02-23 19:06 METAR KWRI 240006Z AUTO 13004KT 10SM FEW004 BKN008 OVC015 05/05 A3027 RMK AO2
                 CIG 003 RWY06 CIG 002 RWY18 SLP251 =
2018-02-23 18:56 METAR KWRI 232356Z AUTO 11003KT 10SM BKN007 OVC017 05/05 A3028 RMK AO2 CIG
                 005V007 BKN V OVC CIG 003 RWY06 CIG 002 RWY18 SLP255 T00530050 10059 20051 57022
                 =
2018-02-23 18:51 METAR KWRI 232351Z AUTO 12003KT 10SM OVC007 05/05 A3029 RMK AO2 CIG 005V007 CIG
                 003 RWY06 CIG 002 RWY18 SLP258 =
2018-02-23 18:36 METAR KWRI 232336Z AUTO 00000KT 8SM OVC005 05/05 A3030 RMK AO2 CIG 003 RWY06 CIG
                 003 RWY18 SLP261 =
2018-02-23 17:56 METAR KWRI 232256Z AUTO 00000KT 4SM BR OVC004 05/05 A3032 RMK AO2 CIG 003 RWY18
                 SLP268 T00540050 =
2018-02-23 17:51 METAR KWRI 232251Z AUTO 00000KT 3SM BR OVC004 05/05 A3033 RMK AO2 CIG 003 RWY18
                 SLP271 =
2018-02-23 17:41 METAR KWRI 232241Z AUTO 10003KT 2 3/4SM BR OVC004 06/05 A3032 RMK AO2 CIG 003
                 RWY18 SLP268 =
2018-02-23 17:31 METAR KWRI 232231Z AUTO 12003KT 3SM BR OVC004 06/05 A3032 RMK AO2 VIS 2 1/2
                 RWY06/24 OVC V BKN CIG 002 RWY18 SLP268 =
2018-02-23 17:21 METAR KWRI 232221Z AUTO 11003KT 2 1/2SM BR BKN004 OVC008 06/05 A3032 RMK AO2 VIS
                 2V2 1/2 VIS 1 7/8 RWY06/24 CIG 002 RWY18 SLP268 =
2018-02-23 17:06 METAR KWRI 232206Z AUTO 11004KT 2SM BR OVC005 06/05 A3033 RMK AO2 CIG 004 RWY06
                 CIG 002 RWY18 SLP271 =
2018-02-23 16:56 METAR KWRI 232156Z AUTO 11004KT 1 5/8SM BR OVC004 06/05 A3034 RMK AO2 CIG 002
                 RWY18 SLP275 T00560052 =
2018-02-23 16:51 METAR KWRI 232151Z AUTO 10005KT 1 5/8SM BR OVC004 06/05 A3033 RMK AO2 VIS 1
                 5/8V2 1/4 CIG 002 RWY18 PRESFR SLP271 =
2018-02-23 16:36 METAR KWRI 232136Z AUTO 08003KT 2 3/4SM BR OVC004 06/05 A3035 RMK AO2 VIS 2
                 3/4V4 VIS 2 RWY06/24 CIG 003 RWY18 SLP278 =
2018-02-23 16:21 METAR KWRI 232121Z AUTO 11005KT 3SM BR OVC004 06/05 A3035 RMK AO2 CIG 003 RWY18
                 SLP278 =
2018-02-23 16:11 METAR KWRI 232111Z 10005KT 2 3/4SM BR OVC004 06/05 A3035 RMK AO2A SLP278 =
2018-02-23 15:56 METAR KWRI 232056Z 11006KT 3SM BR OVC005 06/05 A3035 RMK AO2A VIS 2 1/2 RWY06
                 SLP278 T00570051 57033 =
2018-02-23 15:11 METAR KWRI 232011Z 13006KT 4SM BR OVC005 06/05 A3037 RMK AO2A VIS 2 1/2 RWY06/24
                 CIG 003 RWY18 SLP285 =
2018-02-23 14:56 METAR KWRI 231956Z 12009KT 3SM BR OVC004 06/05 A3038 RMK AO2A CIG 003 RWY18
                 SLP288 T00590052 =
2018-02-23 14:41 METAR KWRI 231941Z 11006KT 3SM BR BKN004 OVC008 06/05 A3039 RMK AO2A VIS 2 1/2
                 RWY06/24 CIG 003 RWY18 SLP292 =
2018-02-23 14:31 METAR KWRI 231931Z 09006KT 2 1/2SM BR BKN004 OVC008 06/05 A3040 RMK AO2A CIG 003
                 RWY18 SLP295 =
2018-02-23 14:21 METAR KWRI 231921Z 12006KT 2 1/4SM BR OVC005 06/05 A3040 RMK AO2A VIS 1 3/4
                 RWY06/24 CIG 003 RWY18 PRESFR SLP295 =
2018-02-23 14:06 METAR KWRI 231906Z 11005KT 2 1/4SM BR OVC004 06/05 A3042 RMK AO2A CIG 003 RWY18
                 SLPNO =
2018-02-23 14:01 METAR KWRI 231901Z 11007KT 2SM BR OVC005 06/05 A3042 RMK AO2A CIG 003 RWY18
                 SLPNO =
2018-02-23 13:56 METAR KWRI 231856Z 10005KT 1 7/8SM BR OVC005 06/05 A3043 RMK AO2A CIG 004 RWY18
                 SLPNO T00550048 =
2018-02-23 13:41 METAR KWRI 231841Z 10004KT 2 3/4SM BR OVC005 05/05 A3043 RMK AO2A VIS 2 3/4V4
                 VIS 2 1/4 RWY06/24 CIG 004 RWY18 SLPNO =
2018-02-23 13:01 METAR KWRI 231801Z 10010KT 4SM BR OVC006 05/05 A3045 RMK AO2A CIG 005 RWY18
                 SLPNO =
2018-02-23 12:56 METAR KWRI 231756Z 11007KT 6SM BR OVC005 05/04 A3045 RMK AO2A SLPNO 60009
                 T00510042 10051 20025 57042 =
2018-02-23 12:16 METAR KWRI 231716Z 09005KT 10SM OVC005 05/04 A3048 RMK AO2A SLP322 =
2018-02-23 11:56 METAR KWRI 231656Z 09009KT 10SM OVC006 05/04 A3049 RMK AO2A RAE1656 SLP326
                 T00460037 =
2018-02-23 10:56 METAR KWRI 231556Z 10009KT 10SM -RA OVC006 04/03 A3053 RMK AO2A CIG 005 RWY18
                 SLP339 P0004 T00400033 =
2018-02-23 10:11 METAR KWRI 231511Z 09006KT 4SM -RA BR OVC005 04/03 A3056 RMK AO2A CIG 003 RWY18
                 SLP349 =
2018-02-23 09:56 METAR KWRI 231456Z COR 08009KT 8SM -RA OVC006 04/03 A3057 RMK AO2A TWR VIS 3 CIG
                 005 RWY18 SLP353 P0003 60005 T00350028 50000 COR 1508 =
2018-02-23 08:58 METAR KWRI 231358Z COR AUTO 09007KT 10SM -RA OVC006 03/03 A3058 RMK AO2 SLP356
                 COR 1418 =
2018-02-23 08:56 METAR KWRI 231356Z AUTO 08006KT 10SM OVC006 03/03 A3058 RMK AO2
                 RAE1256UPB1256E35 SLP356 P0002 T00320025 =
2018-02-23 08:06 METAR KWRI 231306Z 09008KT 8SM -RA OVC006 03/02 A3058 RMK AO2A SLP356 =
2018-02-23 07:56 METAR KWRI 231256Z 07006KT 10SM -RA OVC007 03/02 A3059 RMK AO2A RAB40 CIG 006
                 RWY18 SLP360 P0000 T00290020 =
2018-02-23 07:40 METAR KWRI 231240Z 08006KT 10SM -RA OVC007 03/02 A3058 RMK AO2A RAB40 SLP356 =
2018-02-23 07:31 METAR KWRI 231231Z 09006KT 10SM OVC007 03/02 A3057 RMK AO2A SLP353 =
2018-02-23 06:56 METAR KWRI 231156Z 08005KT 10SM OVC009 03/02 A3057 RMK AO2A RAE1100 SLP353 P0000
                 60000 70006 T00250015 10032 20025 58007 =
2018-02-23 06:46 METAR KWRI 231146Z 08005KT 10SM OVC009 03/02 A3058 RMK AO2A RAE1100 SLP356 =
2018-02-23 06:26 METAR KWRI 231126Z 08007KT 10SM OVC010 03/01 A3059 RMK AO2A RAE1100 SLP360 =
2018-02-23 06:00 METAR KWRI 231100Z COR AUTO 10006KT 10SM OVC012 03/01 A3058 RMK AO2 RAE1100
                 SLP356 COR 1126 =
2018-02-23 05:56 METAR KWRI 231056Z COR 10006KT 10SM -RA OVC012 03/01 A3058 RMK AO2A RAB47 SLP356
                 P0000 T00270009 COR 1059 =
2018-02-23 05:47 METAR KWRI 231047Z COR 09008KT 10SM -RA OVC012 03/01 A3058 RMK AO2A UPB47 SLP356
                 COR 1048 =

Support USWX by starting your Amazon purchase here.